createdAt,value
2019-03-03T00:00:19.127Z,4.07
2019-03-03T00:02:48.225Z,3.87
2019-03-03T00:05:16.034Z,3.70
2019-03-03T00:07:43.822Z,3.30
2019-03-03T00:10:12.036Z,4.40
2019-03-03T00:12:40.014Z,4.20
2019-03-03T00:15:08.086Z,3.50
2019-03-03T00:17:37.674Z,3.10
2019-03-03T00:20:06.383Z,3.53
2019-03-03T00:22:34.186Z,3.70
2019-03-03T00:25:02.263Z,3.83
2019-03-03T00:27:30.204Z,4.00
2019-03-03T00:29:58.102Z,3.63
2019-03-03T00:32:25.904Z,2.80
2019-03-03T00:34:53.814Z,4.37
2019-03-03T00:37:41.441Z,3.57
2019-03-03T00:40:34.866Z,3.17
2019-03-03T00:43:25.554Z,3.27
2019-03-03T00:46:11.821Z,4.30
2019-03-03T00:48:49.270Z,3.80
2019-03-03T00:51:32.436Z,3.80
2019-03-03T00:54:08.144Z,3.97
2019-03-03T00:56:55.510Z,3.70
2019-03-03T00:59:43.067Z,4.50
2019-03-03T01:02:23.450Z,4.27
2019-03-03T01:05:14.225Z,3.93
2019-03-03T01:08:19.750Z,4.10
2019-03-03T01:11:10.457Z,4.20
2019-03-03T01:14:03.733Z,4.40
2019-03-03T01:16:53.862Z,4.43
2019-03-03T01:19:28.101Z,4.20
2019-03-03T01:22:15.579Z,4.43
2019-03-03T01:24:50.224Z,4.23
2019-03-03T01:27:18.151Z,5.50
2019-03-03T01:29:46.072Z,4.20
2019-03-03T01:32:13.900Z,4.60
2019-03-03T01:34:41.691Z,3.57
2019-03-03T01:37:09.946Z,4.93
2019-03-03T01:39:37.867Z,5.50
2019-03-03T01:42:05.798Z,5.23
2019-03-03T01:44:34.221Z,5.70
2019-03-03T01:47:02.121Z,5.30
2019-03-03T01:49:29.940Z,4.90
2019-03-03T01:51:57.944Z,6.60
2019-03-03T01:54:25.723Z,5.10
2019-03-03T01:56:53.527Z,5.23
2019-03-03T01:59:21.447Z,4.30
2019-03-03T02:01:49.217Z,5.47
2019-03-03T02:04:17.014Z,5.00
2019-03-03T02:06:44.952Z,4.63
2019-03-03T02:09:13.733Z,4.77
2019-03-03T02:11:42.596Z,4.80
2019-03-03T02:14:10.515Z,4.40
2019-03-03T02:16:38.333Z,4.87
2019-03-03T02:19:06.227Z,4.80
2019-03-03T02:21:34.229Z,4.97
2019-03-03T02:24:01.982Z,7.23
2019-03-03T02:26:29.972Z,5.20
2019-03-03T02:28:57.745Z,4.60
2019-03-03T02:31:27.459Z,5.23
2019-03-03T02:33:55.643Z,5.63
2019-03-03T02:36:23.398Z,6.00
2019-03-03T02:38:51.384Z,6.17
2019-03-03T02:41:19.174Z,4.97
2019-03-03T02:43:46.947Z,5.50
2019-03-03T02:46:14.889Z,6.30
2019-03-03T02:48:42.863Z,6.20
2019-03-03T02:51:10.833Z,5.70
2019-03-03T02:53:38.632Z,5.73
2019-03-03T02:56:06.430Z,6.53
2019-03-03T02:58:35.476Z,6.23
2019-03-03T03:01:10.816Z,6.40
2019-03-03T03:03:38.734Z,6.50
2019-03-03T03:06:35.227Z,7.00
2019-03-03T03:09:09.859Z,6.60
2019-03-03T03:11:56.221Z,7.13
2019-03-03T03:14:49.802Z,6.47
2019-03-03T03:17:46.308Z,6.63
2019-03-03T03:20:27.102Z,6.10
2019-03-03T03:23:26.568Z,6.97
2019-03-03T03:26:12.957Z,6.50
2019-03-03T03:29:01.431Z,6.43
2019-03-03T03:31:52.923Z,7.50
2019-03-03T03:34:25.648Z,6.70
2019-03-03T03:37:07.020Z,7.80
2019-03-03T03:40:03.783Z,7.47
2019-03-03T03:42:48.090Z,6.73
2019-03-03T03:45:31.670Z,7.10
2019-03-03T03:48:12.076Z,6.37
2019-03-03T03:50:58.308Z,6.73
2019-03-03T03:53:37.588Z,7.70
2019-03-03T03:56:15.746Z,6.87
2019-03-03T03:59:01.974Z,7.30
2019-03-03T04:01:55.615Z,8.13
2019-03-03T04:04:33.525Z,6.83
2019-03-03T04:07:22.862Z,6.80
2019-03-03T04:09:56.071Z,7.20
2019-03-03T04:12:46.821Z,7.00
2019-03-03T04:15:23.654Z,7.33
2019-03-03T04:18:18.243Z,7.93
2019-03-03T04:21:10.872Z,6.37
2019-03-03T04:23:57.033Z,8.03
2019-03-03T04:26:47.775Z,6.90
2019-03-03T04:29:47.416Z,6.67
2019-03-03T04:32:29.595Z,7.97
2019-03-03T04:35:07.652Z,8.07
2019-03-03T04:38:03.874Z,7.63
2019-03-03T04:40:47.768Z,7.60
2019-03-03T04:43:35.156Z,9.70
2019-03-03T04:46:12.472Z,8.10
2019-03-03T04:49:01.146Z,8.33
2019-03-03T04:51:47.313Z,6.50
2019-03-03T04:54:26.357Z,8.20
2019-03-03T04:57:14.155Z,7.90
2019-03-03T04:59:58.528Z,7.60
2019-03-03T05:02:53.806Z,7.70
2019-03-03T05:05:31.035Z,7.97
2019-03-03T05:08:21.323Z,6.80
2019-03-03T05:11:07.363Z,8.03
2019-03-03T05:13:43.753Z,9.30
2019-03-03T05:16:29.904Z,8.10
2019-03-03T05:19:04.020Z,7.97
2019-03-03T05:21:31.985Z,8.43
2019-03-03T05:23:59.749Z,9.13
2019-03-03T05:26:27.756Z,8.10
2019-03-03T05:28:55.527Z,8.10
2019-03-03T05:31:23.307Z,7.23
2019-03-03T05:33:51.244Z,7.60
2019-03-03T05:36:19.022Z,9.07
2019-03-03T05:38:46.818Z,10.20
2019-03-03T05:41:14.760Z,9.10
2019-03-03T05:43:42.535Z,9.30
2019-03-03T05:46:10.328Z,9.23
2019-03-03T05:48:38.266Z,10.03
2019-03-03T05:51:06.051Z,11.43
2019-03-03T05:53:34.016Z,13.00
2019-03-03T05:56:01.917Z,10.63
2019-03-03T05:58:29.859Z,10.30
2019-03-03T06:00:57.645Z,11.00
2019-03-03T06:03:25.603Z,11.63
2019-03-03T06:05:53.517Z,12.57
2019-03-03T06:08:21.302Z,12.53
2019-03-03T06:10:49.211Z,12.87
2019-03-03T06:13:17.117Z,12.40
2019-03-03T06:15:44.909Z,11.90
2019-03-03T06:18:12.930Z,12.13
2019-03-03T06:20:44.724Z,13.50
2019-03-03T06:23:12.577Z,14.43
2019-03-03T06:25:41.563Z,14.13
2019-03-03T06:28:09.531Z,15.17
2019-03-03T06:30:37.338Z,16.37
2019-03-03T06:33:05.213Z,16.43
2019-03-03T06:35:33.142Z,16.70
2019-03-03T06:38:00.927Z,16.23
2019-03-03T06:40:28.762Z,17.60
2019-03-03T06:42:56.684Z,19.13
2019-03-03T06:45:24.581Z,17.10
2019-03-03T06:47:53.370Z,16.73
2019-03-03T06:50:21.306Z,17.37
2019-03-03T06:52:49.113Z,17.87
2019-03-03T06:55:17.016Z,17.47
2019-03-03T06:57:45.421Z,16.50
2019-03-03T07:00:15.802Z,16.87
2019-03-03T07:02:43.597Z,18.30
2019-03-03T07:05:13.365Z,18.60
2019-03-03T07:07:41.642Z,18.57
2019-03-03T07:10:12.199Z,17.70
2019-03-03T07:12:40.328Z,18.40
2019-03-03T07:15:13.619Z,20.07
2019-03-03T07:17:41.406Z,19.10
2019-03-03T07:20:10.833Z,17.73
2019-03-03T07:22:38.634Z,18.03
2019-03-03T07:25:09.354Z,19.00
2019-03-03T07:27:39.116Z,17.40
2019-03-03T07:30:12.591Z,18.50
2019-03-03T07:32:46.048Z,17.80
2019-03-03T07:35:13.854Z,17.20
2019-03-03T07:37:42.011Z,16.90
2019-03-03T07:40:09.936Z,17.33
2019-03-03T07:42:37.803Z,17.87
2019-03-03T07:45:07.313Z,17.53
2019-03-03T07:47:35.107Z,17.63
2019-03-03T07:50:03.205Z,20.57
2019-03-03T07:52:32.883Z,17.47
2019-03-03T07:55:00.803Z,16.93
2019-03-03T07:57:28.584Z,17.20
2019-03-03T07:59:56.523Z,18.77
2019-03-03T08:02:24.486Z,16.43
2019-03-03T08:04:52.372Z,17.40
2019-03-03T08:07:20.299Z,16.20
2019-03-03T08:09:48.075Z,16.97
2019-03-03T08:12:16.044Z,18.50
2019-03-03T08:14:44.018Z,17.23
2019-03-03T08:17:11.810Z,18.87
2019-03-03T08:19:39.765Z,18.40
2019-03-03T08:22:07.554Z,18.23
2019-03-03T08:24:35.331Z,17.30
2019-03-03T08:27:03.270Z,19.13
2019-03-03T08:29:31.244Z,18.93
2019-03-03T08:31:59.037Z,20.20
2019-03-03T08:34:27.094Z,17.87
2019-03-03T08:36:54.877Z,19.63
2019-03-03T08:39:22.951Z,22.13
2019-03-03T08:41:56.743Z,21.00
2019-03-03T08:44:50.184Z,20.43
2019-03-03T08:47:37.131Z,20.60
2019-03-03T08:50:31.064Z,21.70
2019-03-03T08:53:10.005Z,22.27
2019-03-03T08:55:50.151Z,22.77
2019-03-03T08:58:44.006Z,21.17
2019-03-03T09:01:50.151Z,18.60
2019-03-03T09:04:36.568Z,20.10
2019-03-03T09:07:18.940Z,21.20
2019-03-03T09:10:02.541Z,23.77
2019-03-03T09:12:45.556Z,21.87
2019-03-03T09:15:23.946Z,21.53
2019-03-03T09:18:17.119Z,20.50
2019-03-03T09:20:57.946Z,24.27
2019-03-03T09:23:57.200Z,24.57
2019-03-03T09:26:59.767Z,23.47
2019-03-03T09:29:33.008Z,23.63
2019-03-03T09:32:20.584Z,22.97
2019-03-03T09:35:16.950Z,24.00
2019-03-03T09:37:57.971Z,24.10
2019-03-03T09:40:46.223Z,22.77
2019-03-03T09:43:33.855Z,24.33
2019-03-03T09:46:24.574Z,21.63
2019-03-03T09:49:24.234Z,18.97
2019-03-03T09:52:20.331Z,21.67
2019-03-03T09:54:57.741Z,20.00
2019-03-03T09:57:44.192Z,20.13
2019-03-03T10:00:44.130Z,17.03
2019-03-03T10:03:30.294Z,19.30
2019-03-03T10:06:23.962Z,19.60
2019-03-03T10:09:11.372Z,17.50
2019-03-03T10:11:54.956Z,18.57
2019-03-03T10:14:31.499Z,17.00
2019-03-03T10:17:09.944Z,16.40
2019-03-03T10:19:59.795Z,16.93
2019-03-03T10:22:46.565Z,14.10
2019-03-03T10:25:40.019Z,14.03
2019-03-03T10:28:27.695Z,13.30
2019-03-03T10:31:09.769Z,12.87
2019-03-03T10:34:15.891Z,14.70
2019-03-03T10:37:06.264Z,13.63
2019-03-03T10:39:48.395Z,15.77
2019-03-03T10:42:21.378Z,15.50
2019-03-03T10:45:08.992Z,15.40
2019-03-03T10:47:42.575Z,15.40
2019-03-03T10:50:16.715Z,14.40
2019-03-03T10:53:06.352Z,15.50
2019-03-03T10:55:58.313Z,15.43
2019-03-03T10:58:40.283Z,10.53
2019-03-03T11:01:19.596Z,13.23
2019-03-03T11:03:54.660Z,13.97
2019-03-03T11:06:34.073Z,14.63
2019-03-03T11:09:27.416Z,13.17
2019-03-03T11:12:18.102Z,11.57
2019-03-03T11:15:05.738Z,13.30
2019-03-03T11:17:51.913Z,11.93
2019-03-03T11:20:33.326Z,12.27
2019-03-03T11:23:16.577Z,13.60
2019-03-03T11:26:16.280Z,13.00
2019-03-03T11:29:03.855Z,14.70
2019-03-03T11:31:56.906Z,17.37
2019-03-03T11:34:44.509Z,18.13
2019-03-03T11:37:27.027Z,20.20
2019-03-03T11:40:02.486Z,21.23
2019-03-03T11:42:40.994Z,21.93
2019-03-03T11:45:38.052Z,19.90
2019-03-03T11:48:24.410Z,19.40
2019-03-03T11:51:11.131Z,20.00
2019-03-03T11:54:04.331Z,21.47
2019-03-03T11:56:50.668Z,18.80
2019-03-03T11:59:44.299Z,20.53
2019-03-03T12:02:26.026Z,18.50
2019-03-03T12:05:16.572Z,19.93
2019-03-03T12:08:04.014Z,21.20
2019-03-03T12:11:06.950Z,21.63
2019-03-03T12:13:43.966Z,20.53
2019-03-03T12:16:29.955Z,20.97
2019-03-03T12:19:06.728Z,20.40
2019-03-03T12:21:54.427Z,19.00
2019-03-03T12:24:50.929Z,20.53
2019-03-03T12:27:39.547Z,20.23
2019-03-03T12:30:28.539Z,19.17
2019-03-03T12:33:18.250Z,19.60
2019-03-03T12:35:55.547Z,19.30
2019-03-03T12:38:39.760Z,19.40
2019-03-03T12:41:27.307Z,18.50
2019-03-03T12:44:08.945Z,20.43
2019-03-03T12:46:45.547Z,18.43
2019-03-03T12:49:18.940Z,18.60
2019-03-03T12:52:08.586Z,18.23
2019-03-03T12:55:08.383Z,17.77
2019-03-03T12:57:59.051Z,17.23
2019-03-03T13:00:43.024Z,15.90
2019-03-03T13:03:28.794Z,14.27
2019-03-03T13:06:06.381Z,15.80
2019-03-03T13:09:05.769Z,15.73
2019-03-03T13:11:39.205Z,14.50
2019-03-03T13:14:29.484Z,14.77
2019-03-03T13:17:09.306Z,16.20
2019-03-03T13:20:15.055Z,16.80
2019-03-03T13:23:06.439Z,15.10
2019-03-03T13:25:54.145Z,14.40
2019-03-03T13:28:40.455Z,13.50
2019-03-03T13:31:30.432Z,14.77
2019-03-03T13:34:05.371Z,14.27
2019-03-03T13:36:48.724Z,13.90
2019-03-03T13:39:34.687Z,13.50
2019-03-03T13:42:25.010Z,12.27
2019-03-03T13:44:53.059Z,13.17
2019-03-03T13:47:20.867Z,12.57
2019-03-03T13:49:48.663Z,10.60
2019-03-03T13:52:16.952Z,11.97
2019-03-03T13:54:44.829Z,10.97
2019-03-03T13:57:12.956Z,11.07
2019-03-03T13:59:41.082Z,11.93
2019-03-03T14:02:08.866Z,11.93
2019-03-03T14:04:39.166Z,12.50
2019-03-03T14:07:07.096Z,10.40
2019-03-03T14:09:34.943Z,11.30
2019-03-03T14:12:02.877Z,12.67
2019-03-03T14:14:30.657Z,11.13
2019-03-03T14:16:58.634Z,11.00
2019-03-03T14:19:26.610Z,10.40
2019-03-03T14:21:54.445Z,11.20
2019-03-03T14:24:22.753Z,10.17
2019-03-03T14:26:50.581Z,9.30
2019-03-03T14:29:18.500Z,10.13
2019-03-03T14:31:46.486Z,8.67
2019-03-03T14:34:14.265Z,8.73
2019-03-03T14:36:43.301Z,9.50
2019-03-03T14:39:11.405Z,8.53
2019-03-03T14:41:39.185Z,8.30
2019-03-03T14:44:06.980Z,7.43
2019-03-03T14:46:35.030Z,8.87
2019-03-03T14:49:02.900Z,8.87
2019-03-03T14:51:30.697Z,8.97
2019-03-03T14:53:58.773Z,6.13
2019-03-03T14:56:26.897Z,6.70
2019-03-03T14:58:54.708Z,7.77
2019-03-03T15:01:22.770Z,7.13
2019-03-03T15:03:50.592Z,7.23
2019-03-03T15:06:24.431Z,6.90
2019-03-03T15:08:48.553Z,7.73
2019-03-03T15:11:18.222Z,7.40
2019-03-03T15:13:46.245Z,6.90
2019-03-03T15:16:14.225Z,7.57
2019-03-03T15:18:42.125Z,6.50
2019-03-03T15:21:10.354Z,6.50
2019-03-03T15:23:38.223Z,6.40
2019-03-03T15:26:07.894Z,6.47
2019-03-03T15:28:35.905Z,6.93
2019-03-03T15:31:04.076Z,7.13
2019-03-03T15:33:31.915Z,6.37
2019-03-03T15:35:59.688Z,5.80
2019-03-03T15:38:29.465Z,6.60
2019-03-03T15:40:57.436Z,6.80
2019-03-03T15:43:25.229Z,6.50
2019-03-03T15:45:53.249Z,6.37
2019-03-03T15:48:21.241Z,6.47
2019-03-03T15:50:49.400Z,6.30
2019-03-03T15:53:17.266Z,5.40
2019-03-03T15:55:45.265Z,6.70
2019-03-03T15:58:14.195Z,7.23
2019-03-03T16:00:43.215Z,6.47
2019-03-03T16:03:11.188Z,5.70
2019-03-03T16:05:38.997Z,6.90
2019-03-03T16:08:06.954Z,5.67
2019-03-03T16:10:34.928Z,7.00
2019-03-03T16:13:03.885Z,5.93
2019-03-03T16:15:31.928Z,5.57
2019-03-03T16:17:59.887Z,5.77
2019-03-03T16:20:27.993Z,5.40
2019-03-03T16:22:57.769Z,5.57
2019-03-03T16:25:26.658Z,5.37
2019-03-03T16:27:54.681Z,4.80
2019-03-03T16:30:22.808Z,5.90
2019-03-03T16:32:52.286Z,5.60
2019-03-03T16:35:20.135Z,4.70
2019-03-03T16:37:48.166Z,5.37
2019-03-03T16:40:21.026Z,4.33
2019-03-03T16:42:49.300Z,4.90
2019-03-03T16:45:17.607Z,5.37
2019-03-03T16:47:45.466Z,5.20
2019-03-03T16:50:15.587Z,5.33
2019-03-03T16:52:43.742Z,5.37
2019-03-03T16:55:12.864Z,4.70
2019-03-03T16:57:40.672Z,4.73
2019-03-03T17:00:13.307Z,4.80
2019-03-03T17:02:41.144Z,4.83
2019-03-03T17:05:10.460Z,4.27
2019-03-03T17:07:38.537Z,5.70
2019-03-03T17:10:06.995Z,5.33
2019-03-03T17:12:34.992Z,5.00
2019-03-03T17:15:05.401Z,5.37
2019-03-03T17:17:34.673Z,4.40
2019-03-03T17:20:05.024Z,4.53
2019-03-03T17:22:33.179Z,4.73
2019-03-03T17:25:01.155Z,5.30
2019-03-03T17:27:30.059Z,4.33
2019-03-03T17:29:58.248Z,4.50
2019-03-03T17:32:26.153Z,3.67
2019-03-03T17:34:54.367Z,4.57
2019-03-03T17:37:24.257Z,4.90
2019-03-03T17:39:52.091Z,4.97
2019-03-03T17:42:19.953Z,4.33
2019-03-03T17:44:50.771Z,4.90
2019-03-03T17:47:18.729Z,4.63
2019-03-03T17:49:46.704Z,5.33
2019-03-03T17:52:14.811Z,4.33
2019-03-03T17:54:42.758Z,4.70
2019-03-03T17:57:10.846Z,5.90
2019-03-03T17:59:39.078Z,5.17
2019-03-03T18:02:07.172Z,4.87
2019-03-03T18:04:35.176Z,5.27
2019-03-03T18:07:03.437Z,4.13
2019-03-03T18:09:31.251Z,4.90
2019-03-03T18:11:59.299Z,5.13
2019-03-03T18:14:28.051Z,5.60
2019-03-03T18:16:56.248Z,5.23
2019-03-03T18:19:26.124Z,5.73
2019-03-03T18:21:53.920Z,5.83
2019-03-03T18:24:21.753Z,5.20
2019-03-03T18:26:49.723Z,6.33
2019-03-03T18:29:17.920Z,5.57
2019-03-03T18:31:46.180Z,5.90
2019-03-03T18:34:14.278Z,5.27
2019-03-03T18:36:42.067Z,6.00
2019-03-03T18:39:11.281Z,6.30
2019-03-03T18:41:39.115Z,6.07
2019-03-03T18:44:08.276Z,5.97
2019-03-03T18:46:36.135Z,6.23
2019-03-03T18:49:04.135Z,5.03
2019-03-03T18:51:32.094Z,5.30
2019-03-03T18:53:59.902Z,4.83
2019-03-03T18:56:27.797Z,5.20
2019-03-03T18:58:55.829Z,4.90
2019-03-03T19:01:23.789Z,5.47
2019-03-03T19:03:51.700Z,5.00
2019-03-03T19:06:19.836Z,4.83
2019-03-03T19:08:48.858Z,4.60
2019-03-03T19:11:16.803Z,4.87
2019-03-03T19:13:44.858Z,3.50
2019-03-03T19:16:12.755Z,4.00
2019-03-03T19:18:40.586Z,3.63
2019-03-03T19:21:08.695Z,3.37
2019-03-03T19:23:36.596Z,4.40
2019-03-03T19:26:05.577Z,3.17
2019-03-03T19:28:33.746Z,3.87
2019-03-03T19:31:01.620Z,3.50
2019-03-03T19:33:42.339Z,3.50
2019-03-03T19:36:10.372Z,3.90
2019-03-03T19:38:38.223Z,3.87
2019-03-03T19:41:06.010Z,3.50
2019-03-03T19:43:34.076Z,2.80
2019-03-03T19:46:02.654Z,3.43
2019-03-03T19:48:31.624Z,2.87
2019-03-03T19:50:59.631Z,3.00
2019-03-03T19:53:27.442Z,2.87
2019-03-03T19:55:55.256Z,3.83
2019-03-03T19:58:23.262Z,3.43
2019-03-03T20:00:52.246Z,3.43
2019-03-03T20:03:20.329Z,3.20
2019-03-03T20:05:48.439Z,3.50
2019-03-03T20:08:16.231Z,3.47
2019-03-03T20:10:44.285Z,3.30
2019-03-03T20:13:12.325Z,2.90
2019-03-03T20:15:40.191Z,3.70
2019-03-03T20:18:08.664Z,3.70
2019-03-03T20:20:36.516Z,3.77
2019-03-03T20:23:05.386Z,3.73
2019-03-03T20:25:33.405Z,3.10
2019-03-03T20:28:02.523Z,3.67
2019-03-03T20:30:30.372Z,4.60
2019-03-03T20:32:58.355Z,4.00
2019-03-03T20:35:27.524Z,3.40
2019-03-03T20:37:55.377Z,4.60
2019-03-03T20:40:23.395Z,3.67
2019-03-03T20:42:51.552Z,4.60
2019-03-03T20:45:21.921Z,4.03
2019-03-03T20:47:50.003Z,4.20
2019-03-03T20:50:19.643Z,3.50
2019-03-03T20:52:49.031Z,4.40
2019-03-03T20:55:18.574Z,4.13
2019-03-03T20:57:46.489Z,3.90
2019-03-03T21:00:20.666Z,4.00
2019-03-03T21:02:48.662Z,4.00
2019-03-03T21:05:16.450Z,4.37
2019-03-03T21:07:51.308Z,4.23
2019-03-03T21:10:17.028Z,4.10
2019-03-03T21:12:44.969Z,2.90
2019-03-03T21:15:13.055Z,4.83
2019-03-03T21:17:40.943Z,4.17
2019-03-03T21:20:11.700Z,3.87
2019-03-03T21:22:39.488Z,4.30
2019-03-03T21:25:08.468Z,3.47
2019-03-03T21:27:36.496Z,4.60
2019-03-03T21:30:09.679Z,4.00
2019-03-03T21:32:37.656Z,3.33
2019-03-03T21:35:06.518Z,4.33
2019-03-03T21:37:34.291Z,4.30
2019-03-03T21:40:02.185Z,3.10
2019-03-03T21:42:29.962Z,3.90
2019-03-03T21:44:57.861Z,4.10
2019-03-03T21:47:25.786Z,4.60
2019-03-03T21:49:53.570Z,3.90
2019-03-03T21:52:21.614Z,4.40
2019-03-03T21:54:49.643Z,3.63
2019-03-03T21:57:17.450Z,3.53
2019-03-03T21:59:45.363Z,3.50
2019-03-03T22:02:13.300Z,3.77
2019-03-03T22:04:41.091Z,3.97
2019-03-03T22:07:09.030Z,3.50
2019-03-03T22:09:37.138Z,3.43
2019-03-03T22:12:04.925Z,3.57
2019-03-03T22:14:32.719Z,3.37
2019-03-03T22:17:00.636Z,3.03
2019-03-03T22:19:28.428Z,3.50
2019-03-03T22:21:56.214Z,2.97
2019-03-03T22:24:24.127Z,3.50
2019-03-03T22:26:52.043Z,3.30
2019-03-03T22:29:19.838Z,2.57
2019-03-03T22:31:47.643Z,3.40
2019-03-03T22:34:15.582Z,2.73
2019-03-03T22:36:44.597Z,3.20
2019-03-03T22:39:12.414Z,2.87
2019-03-03T22:41:40.396Z,2.47
2019-03-03T22:44:08.317Z,2.20
2019-03-03T22:46:36.234Z,2.60
2019-03-03T22:49:04.017Z,2.80
2019-03-03T22:51:31.931Z,2.30
2019-03-03T22:53:59.964Z,2.20
2019-03-03T22:56:27.781Z,2.30
2019-03-03T22:58:55.573Z,2.50
2019-03-03T23:01:32.017Z,2.43
2019-03-03T23:04:53.069Z,2.60
2019-03-03T23:07:57.912Z,2.00
2019-03-03T23:11:23.025Z,2.40
2019-03-03T23:14:37.983Z,2.27
2019-03-03T23:17:41.670Z,1.90
2019-03-03T23:21:01.902Z,2.07
2019-03-03T23:24:21.972Z,2.03
2019-03-03T23:26:51.048Z,2.57
2019-03-03T23:29:18.971Z,2.20
2019-03-03T23:31:46.768Z,2.10
2019-03-03T23:34:14.949Z,1.97
2019-03-03T23:36:42.936Z,2.20
2019-03-03T23:39:14.007Z,2.07
2019-03-03T23:41:41.828Z,2.20
2019-03-03T23:44:09.777Z,1.90
2019-03-03T23:46:37.564Z,2.17
2019-03-03T23:49:05.345Z,1.90
2019-03-03T23:51:33.294Z,2.30
2019-03-03T23:54:01.674Z,2.07
2019-03-03T23:56:30.578Z,2.50
2019-03-03T23:58:58.550Z,1.80
